createdAt,value
2023-02-11T00:00:31.266Z,100516.20
2023-02-11T00:03:18.188Z,100509.16
2023-02-11T00:05:45.170Z,100504.04
2023-02-11T00:08:16.491Z,100502.84
2023-02-11T00:10:45.901Z,100501.75
2023-02-11T00:13:12.872Z,100500.08
2023-02-11T00:15:39.793Z,100495.40
2023-02-11T00:18:06.634Z,100496.48
2023-02-11T00:20:33.526Z,100496.40
2023-02-11T00:23:00.676Z,100498.07
2023-02-11T00:25:27.624Z,100502.09
2023-02-11T00:27:54.577Z,100497.08
2023-02-11T00:30:21.566Z,100499.54
2023-02-11T00:32:48.602Z,100502.04
2023-02-11T00:35:15.796Z,100505.69
2023-02-11T00:37:42.643Z,100502.29
2023-02-11T00:40:11.273Z,100506.23
2023-02-11T00:42:38.273Z,100505.14
2023-02-11T00:45:05.371Z,100498.77
2023-02-11T00:47:32.196Z,100498.33
2023-02-11T00:50:00.467Z,100489.91
2023-02-11T00:52:28.021Z,100488.48
2023-02-11T00:54:54.969Z,100487.90
2023-02-11T00:57:22.105Z,100481.21
2023-02-11T00:59:50.153Z,100470.48
2023-02-11T01:02:17.686Z,100464.02
2023-02-11T01:04:44.510Z,100461.09
2023-02-11T01:07:11.504Z,100459.80
2023-02-11T01:09:38.666Z,100464.60
2023-02-11T01:12:05.985Z,100465.52
2023-02-11T01:14:33.100Z,100463.15
2023-02-11T01:17:00.054Z,100457.77
2023-02-11T01:19:26.999Z,100450.33
2023-02-11T01:21:53.925Z,100447.65
2023-02-11T01:24:22.277Z,100444.14
2023-02-11T01:26:49.316Z,100443.16
2023-02-11T01:29:16.462Z,100442.19
2023-02-11T01:31:43.528Z,100446.10
2023-02-11T01:34:10.360Z,100450.01
2023-02-11T01:36:37.433Z,100450.38
2023-02-11T01:39:04.506Z,100447.68
2023-02-11T01:41:31.472Z,100446.54
2023-02-11T01:43:58.311Z,100440.61
2023-02-11T01:46:35.431Z,100440.81
2023-02-11T01:49:05.499Z,100440.65
2023-02-11T01:51:43.451Z,100443.02
2023-02-11T01:54:31.352Z,100439.45
2023-02-11T01:57:18.471Z,100438.44
2023-02-11T01:59:45.615Z,100435.66
2023-02-11T02:02:14.772Z,100429.67
2023-02-11T02:04:53.305Z,100426.98
2023-02-11T02:07:32.253Z,100423.89
2023-02-11T02:10:03.161Z,100422.38
2023-02-11T02:12:30.282Z,100423.57
2023-02-11T02:15:20.608Z,100418.83
2023-02-11T02:17:59.231Z,100418.83
2023-02-11T02:20:45.077Z,100415.75
2023-02-11T02:23:21.947Z,100420.16
2023-02-11T02:26:01.216Z,100418.29
2023-02-11T02:28:41.105Z,100416.27
2023-02-11T02:31:26.860Z,100410.70
2023-02-11T02:34:09.750Z,100405.63
2023-02-11T02:36:39.361Z,100397.30
2023-02-11T02:39:08.662Z,100401.38
2023-02-11T02:41:36.722Z,100397.62
2023-02-11T02:44:04.284Z,100398.13
2023-02-11T02:46:32.282Z,100392.84
2023-02-11T02:48:59.862Z,100390.11
2023-02-11T02:51:48.156Z,100393.54
2023-02-11T02:54:17.886Z,100399.83
2023-02-11T02:56:45.006Z,100396.27
2023-02-11T02:59:35.234Z,100394.21
2023-02-11T03:02:25.161Z,100389.30
2023-02-11T03:04:58.084Z,100382.13
2023-02-11T03:07:41.386Z,100376.02
2023-02-11T03:10:14.004Z,100376.89
2023-02-11T03:12:42.119Z,100380.10
2023-02-11T03:15:10.863Z,100380.55
2023-02-11T03:17:40.354Z,100377.23
2023-02-11T03:20:10.197Z,100370.45
2023-02-11T03:22:40.160Z,100365.04
2023-02-11T03:25:07.274Z,100367.88
2023-02-11T03:27:34.156Z,100364.48
2023-02-11T03:30:05.261Z,100362.79
2023-02-11T03:32:35.848Z,100360.27
2023-02-11T03:35:05.557Z,100360.64
2023-02-11T03:37:50.034Z,100356.77
2023-02-11T03:40:20.064Z,100356.61
2023-02-11T03:43:00.604Z,100357.98
2023-02-11T03:45:28.330Z,100353.74
2023-02-11T03:47:58.186Z,100350.01
2023-02-11T03:50:25.918Z,100353.09
2023-02-11T03:52:53.911Z,100350.15
2023-02-11T03:55:22.742Z,100352.06
2023-02-11T03:57:49.816Z,100353.64
2023-02-11T04:00:16.778Z,100353.86
2023-02-11T04:02:44.161Z,100355.13
2023-02-11T04:05:13.227Z,100352.92
2023-02-11T04:07:40.277Z,100349.20
2023-02-11T04:10:07.439Z,100356.84
2023-02-11T04:12:34.346Z,100355.32
2023-02-11T04:15:01.239Z,100351.91
2023-02-11T04:17:28.133Z,100352.39
2023-02-11T04:19:54.998Z,100346.52
2023-02-11T04:22:21.829Z,100341.50
2023-02-11T04:24:48.813Z,100339.48
2023-02-11T04:27:15.933Z,100339.20
2023-02-11T04:29:42.933Z,100340.23
2023-02-11T04:32:10.791Z,100343.05
2023-02-11T04:34:37.830Z,100342.45
2023-02-11T04:37:04.689Z,100343.52
2023-02-11T04:39:31.534Z,100345.75
2023-02-11T04:41:58.487Z,100343.30
2023-02-11T04:44:25.432Z,100342.33
2023-02-11T04:46:52.781Z,100339.34
2023-02-11T04:49:19.846Z,100334.84
2023-02-11T04:51:49.279Z,100332.06
2023-02-11T04:54:17.139Z,100332.20
2023-02-11T04:56:44.256Z,100332.36
2023-02-11T04:59:12.801Z,100329.61
2023-02-11T05:01:39.887Z,100325.86
2023-02-11T05:04:06.874Z,100325.66
2023-02-11T05:06:33.927Z,100321.77
2023-02-11T05:09:00.762Z,100322.25
2023-02-11T05:11:27.648Z,100318.09
2023-02-11T05:13:54.560Z,100317.59
2023-02-11T05:16:21.509Z,100315.30
2023-02-11T05:18:52.330Z,100313.84
2023-02-11T05:21:19.613Z,100315.87
2023-02-11T05:23:46.821Z,100312.52
2023-02-11T05:26:14.357Z,100313.63
2023-02-11T05:28:41.825Z,100312.69
2023-02-11T05:31:09.362Z,100309.21
2023-02-11T05:33:36.354Z,100312.17
2023-02-11T05:36:07.952Z,100306.27
2023-02-11T05:38:35.602Z,100302.10
2023-02-11T05:41:03.573Z,100296.44
2023-02-11T05:43:30.510Z,100300.91
2023-02-11T05:45:57.568Z,100302.49
2023-02-11T05:48:24.550Z,100308.79
2023-02-11T05:50:51.398Z,100311.76
2023-02-11T05:53:18.251Z,100318.63
2023-02-11T05:55:45.420Z,100319.03
2023-02-11T05:58:13.135Z,100323.36
2023-02-11T06:00:40.180Z,100328.20
2023-02-11T06:03:07.577Z,100330.46
2023-02-11T06:05:34.475Z,100339.13
2023-02-11T06:08:01.401Z,100336.71
2023-02-11T06:10:28.370Z,100340.27
2023-02-11T06:12:55.315Z,100342.67
2023-02-11T06:15:22.264Z,100340.02
2023-02-11T06:17:49.194Z,100345.34
2023-02-11T06:20:16.163Z,100342.05
2023-02-11T06:22:43.216Z,100343.88
2023-02-11T06:25:10.804Z,100340.91
2023-02-11T06:27:38.030Z,100342.52
2023-02-11T06:30:05.991Z,100346.66
2023-02-11T06:32:43.915Z,100352.17
2023-02-11T06:35:12.765Z,100350.23
2023-02-11T06:37:40.524Z,100353.04
2023-02-11T06:40:07.500Z,100356.02
2023-02-11T06:42:35.612Z,100355.10
2023-02-11T06:45:05.421Z,100356.41
2023-02-11T06:47:32.347Z,100352.13
2023-02-11T06:49:59.274Z,100351.27
2023-02-11T06:52:26.279Z,100346.84
2023-02-11T06:54:53.246Z,100340.55
2023-02-11T06:57:20.139Z,100341.38
2023-02-11T06:59:47.091Z,100339.95
2023-02-11T07:02:14.072Z,100338.02
2023-02-11T07:04:41.152Z,100337.44
2023-02-11T07:07:08.059Z,100329.71
2023-02-11T07:09:34.971Z,100321.17
2023-02-11T07:12:01.875Z,100316.73
2023-02-11T07:14:28.749Z,100313.29
2023-02-11T07:16:55.628Z,100310.00
2023-02-11T07:19:22.595Z,100305.84
2023-02-11T07:21:49.554Z,100302.68
2023-02-11T07:24:16.673Z,100298.30
2023-02-11T07:26:44.406Z,100297.30
2023-02-11T07:29:11.381Z,100294.39
2023-02-11T07:31:38.326Z,100288.73
2023-02-11T07:34:05.424Z,100284.81
2023-02-11T07:36:32.407Z,100287.35
2023-02-11T07:38:59.947Z,100291.41
2023-02-11T07:41:27.416Z,100293.23
2023-02-11T07:43:54.709Z,100286.19
2023-02-11T07:46:26.195Z,100280.15
2023-02-11T07:48:53.243Z,100276.85
2023-02-11T07:51:27.267Z,100268.05
2023-02-11T07:53:55.180Z,100268.66
2023-02-11T07:56:22.691Z,100266.67
2023-02-11T07:58:49.948Z,100266.91
2023-02-11T08:01:18.169Z,100266.27
2023-02-11T08:03:45.330Z,100267.47
2023-02-11T08:06:13.670Z,100259.95
2023-02-11T08:08:41.060Z,100254.27
2023-02-11T08:11:09.022Z,100249.61
2023-02-11T08:13:36.009Z,100242.55
2023-02-11T08:16:03.729Z,100233.59
2023-02-11T08:18:30.875Z,100230.96
2023-02-11T08:21:03.259Z,100222.88
2023-02-11T08:23:30.087Z,100218.73
2023-02-11T08:26:00.758Z,100212.08
2023-02-11T08:28:27.651Z,100211.38
2023-02-11T08:30:54.602Z,100207.69
2023-02-11T08:33:21.468Z,100214.93
2023-02-11T08:35:48.347Z,100217.50
2023-02-11T08:38:15.265Z,100223.86
2023-02-11T08:40:42.182Z,100234.31
2023-02-11T08:43:09.012Z,100238.41
2023-02-11T08:45:37.072Z,100236.45
2023-02-11T08:48:03.995Z,100225.43
2023-02-11T08:50:31.821Z,100228.44
2023-02-11T08:52:58.694Z,100229.31
2023-02-11T08:55:26.289Z,100225.55
2023-02-11T08:57:53.254Z,100235.77
2023-02-11T09:00:20.360Z,100234.40
2023-02-11T09:02:47.185Z,100238.68
2023-02-11T09:05:14.176Z,100240.98
2023-02-11T09:07:40.988Z,100236.52
2023-02-11T09:10:08.345Z,100236.21
2023-02-11T09:12:35.290Z,100236.45
2023-02-11T09:15:02.391Z,100231.98
2023-02-11T09:17:29.276Z,100234.40
2023-02-11T09:19:56.141Z,100240.71
2023-02-11T09:22:23.060Z,100234.08
2023-02-11T09:24:50.031Z,100227.45
2023-02-11T09:27:16.914Z,100218.59
2023-02-11T09:29:43.896Z,100209.08
2023-02-11T09:32:10.960Z,100199.91
2023-02-11T09:34:38.000Z,100190.77
2023-02-11T09:37:04.994Z,100182.67
2023-02-11T09:39:31.815Z,100177.32
2023-02-11T09:42:14.424Z,100181.40
2023-02-11T09:44:44.320Z,100181.60
2023-02-11T09:47:30.024Z,100181.54
2023-02-11T09:49:59.990Z,100178.78
2023-02-11T09:52:36.717Z,100173.23
2023-02-11T09:55:11.214Z,100176.75
2023-02-11T09:57:38.075Z,100172.19
2023-02-11T10:00:16.863Z,100176.27
2023-02-11T10:02:49.906Z,100169.02
2023-02-11T10:05:36.700Z,100168.20
2023-02-11T10:08:11.987Z,100160.23
2023-02-11T10:10:42.032Z,100159.70
2023-02-11T10:13:44.682Z,100159.77
2023-02-11T10:16:20.428Z,100156.63
2023-02-11T10:18:50.206Z,100151.09
2023-02-11T10:21:20.088Z,100150.92
2023-02-11T10:23:51.320Z,100136.79
2023-02-11T10:26:18.709Z,100127.13
2023-02-11T10:28:47.150Z,100117.64
2023-02-11T10:31:40.285Z,100127.65
2023-02-11T10:34:09.804Z,100122.55
2023-02-11T10:36:38.298Z,100109.98
2023-02-11T10:39:14.681Z,100103.09
2023-02-11T10:41:44.557Z,100102.02
2023-02-11T10:44:31.704Z,100101.66
2023-02-11T10:47:01.414Z,100103.94
2023-02-11T10:49:34.780Z,100097.84
2023-02-11T10:52:15.772Z,100089.18
2023-02-11T10:54:55.028Z,100082.09
2023-02-11T10:57:24.336Z,100080.64
2023-02-11T10:59:56.578Z,100084.85
2023-02-11T11:02:23.941Z,100085.78
2023-02-11T11:04:55.932Z,100074.00
2023-02-11T11:07:27.796Z,100065.25
2023-02-11T11:10:01.948Z,100064.73
2023-02-11T11:12:31.272Z,100063.61
2023-02-11T11:15:00.717Z,100067.13
2023-02-11T11:17:30.786Z,100059.78
2023-02-11T11:20:14.247Z,100055.86
2023-02-11T11:22:41.906Z,100055.67
2023-02-11T11:25:29.061Z,100056.34
2023-02-11T11:27:58.732Z,100053.33
2023-02-11T11:30:34.245Z,100053.90
2023-02-11T11:33:01.739Z,100055.60
2023-02-11T11:35:29.946Z,100059.27
2023-02-11T11:38:01.762Z,100052.89
2023-02-11T11:40:30.513Z,100048.72
2023-02-11T11:43:03.442Z,100044.35
2023-02-11T11:45:30.363Z,100040.02
2023-02-11T11:48:00.337Z,100024.98
2023-02-11T11:50:30.227Z,100025.64
2023-02-11T11:53:19.881Z,100020.46
2023-02-11T11:55:59.589Z,100019.60
2023-02-11T11:58:27.648Z,100018.31
2023-02-11T12:01:10.524Z,100008.98
2023-02-11T12:03:37.308Z,100014.52
2023-02-11T12:06:15.665Z,100011.06
2023-02-11T12:08:45.479Z,100003.34
2023-02-11T12:11:18.744Z,99997.90
2023-02-11T12:13:57.254Z,99991.20
2023-02-11T12:16:24.110Z,99984.84
2023-02-11T12:18:51.169Z,99980.21
2023-02-11T12:21:24.018Z,99978.30
2023-02-11T12:24:04.567Z,99970.13
2023-02-11T12:26:36.780Z,99963.29
2023-02-11T12:29:06.475Z,99952.51
2023-02-11T12:31:33.341Z,99946.49
2023-02-11T12:34:09.156Z,99938.90
2023-02-11T12:36:54.813Z,99932.57
2023-02-11T12:39:27.614Z,99935.31
2023-02-11T12:42:32.312Z,99936.68
2023-02-11T12:45:05.491Z,99933.84
2023-02-11T12:47:42.550Z,99936.14
2023-02-11T12:50:15.514Z,99936.70
2023-02-11T12:52:57.670Z,99933.95
2023-02-11T12:55:29.700Z,99931.52
2023-02-11T12:57:58.816Z,99930.38
2023-02-11T13:00:30.841Z,99931.45
2023-02-11T13:03:10.712Z,99924.66
2023-02-11T13:05:40.210Z,99927.27
2023-02-11T13:08:13.040Z,99923.95
2023-02-11T13:10:41.480Z,99920.31
2023-02-11T13:13:30.066Z,99923.23
2023-02-11T13:16:09.835Z,99924.60
2023-02-11T13:18:36.991Z,99921.00
2023-02-11T13:21:16.163Z,99914.28
2023-02-11T13:23:54.045Z,99911.23
2023-02-11T13:26:40.729Z,99906.73
2023-02-11T13:29:19.929Z,99899.89
2023-02-11T13:31:54.218Z,99897.57
2023-02-11T13:34:25.889Z,99899.08
2023-02-11T13:36:57.073Z,99897.35
2023-02-11T13:39:24.217Z,99889.40
2023-02-11T13:42:01.454Z,99891.77
2023-02-11T13:44:28.424Z,99889.13
2023-02-11T13:47:04.378Z,99890.13
2023-02-11T13:49:41.741Z,99885.72
2023-02-11T13:52:27.050Z,99886.36
2023-02-11T13:54:55.402Z,99884.78
2023-02-11T13:57:26.575Z,99880.64
2023-02-11T13:59:58.448Z,99881.62
2023-02-11T14:02:52.028Z,99879.47
2023-02-11T14:05:42.598Z,99879.31
2023-02-11T14:08:28.349Z,99870.98
2023-02-11T14:10:55.180Z,99864.40
2023-02-11T14:13:26.596Z,99854.89
2023-02-11T14:16:09.922Z,99856.84
2023-02-11T14:18:39.633Z,99863.02
2023-02-11T14:21:12.579Z,99860.21
2023-02-11T14:23:40.557Z,99859.30
2023-02-11T14:26:10.455Z,99852.04
2023-02-11T14:28:38.421Z,99850.62
2023-02-11T14:31:19.417Z,99845.61
2023-02-11T14:33:49.494Z,99836.83
2023-02-11T14:36:16.423Z,99829.29
2023-02-11T14:39:09.622Z,99824.84
2023-02-11T14:41:41.414Z,99825.73
2023-02-11T14:44:14.097Z,99822.72
2023-02-11T14:46:45.144Z,99819.56
2023-02-11T14:49:17.585Z,99824.11
2023-02-11T14:51:44.533Z,99817.46
2023-02-11T14:54:14.793Z,99810.34
2023-02-11T14:56:42.073Z,99813.85
2023-02-11T14:59:15.993Z,99813.24
2023-02-11T15:01:45.324Z,99812.97
2023-02-11T15:04:26.021Z,99821.10
2023-02-11T15:06:53.668Z,99813.63
2023-02-11T15:09:28.911Z,99812.30
2023-02-11T15:11:57.399Z,99812.44
2023-02-11T15:14:24.249Z,99808.91
2023-02-11T15:16:55.541Z,99808.98
2023-02-11T15:19:22.472Z,99809.70
2023-02-11T15:21:50.333Z,99805.79
2023-02-11T15:24:23.931Z,99800.86
2023-02-11T15:26:57.813Z,99800.90
2023-02-11T15:29:26.342Z,99803.66
2023-02-11T15:32:04.408Z,99806.08
2023-02-11T15:34:31.915Z,99805.27
2023-02-11T15:36:58.833Z,99808.05
2023-02-11T15:39:35.143Z,99805.34
2023-02-11T15:42:17.515Z,99804.20
2023-02-11T15:44:44.950Z,99807.88
2023-02-11T15:47:13.265Z,99807.43
2023-02-11T15:49:43.819Z,99807.12
2023-02-11T15:52:12.218Z,99807.49
2023-02-11T15:54:39.696Z,99807.70
2023-02-11T15:57:09.383Z,99812.20
2023-02-11T15:59:38.478Z,99819.77
2023-02-11T16:02:08.189Z,99820.11
2023-02-11T16:04:35.712Z,99812.21
2023-02-11T16:07:02.632Z,99803.46
2023-02-11T16:09:34.287Z,99801.58
2023-02-11T16:12:19.015Z,99797.63
2023-02-11T16:14:46.461Z,99793.67
2023-02-11T16:17:23.578Z,99788.55
2023-02-11T16:19:51.563Z,99787.39
2023-02-11T16:22:27.022Z,99787.91
2023-02-11T16:24:55.709Z,99782.44
2023-02-11T16:27:31.754Z,99790.66
2023-02-11T16:29:58.752Z,99784.66
2023-02-11T16:32:26.918Z,99775.25
2023-02-11T16:34:55.202Z,99773.92
2023-02-11T16:37:22.156Z,99777.52
2023-02-11T16:39:49.069Z,99770.30
2023-02-11T16:42:15.980Z,99772.39
2023-02-11T16:44:42.922Z,99777.21
2023-02-11T16:47:16.885Z,99787.70
2023-02-11T16:49:43.896Z,99794.73
2023-02-11T16:52:15.335Z,99797.30
2023-02-11T16:54:42.493Z,99804.21
2023-02-11T16:57:30.396Z,99816.76
2023-02-11T16:59:58.756Z,99815.44
2023-02-11T17:02:27.078Z,99818.23
2023-02-11T17:04:54.680Z,99825.15
2023-02-11T17:07:21.800Z,99826.39
2023-02-11T17:09:48.752Z,99825.92
2023-02-11T17:12:15.666Z,99820.64
2023-02-11T17:14:42.491Z,99817.09
2023-02-11T17:17:10.182Z,99814.90
2023-02-11T17:19:37.348Z,99819.86
2023-02-11T17:22:04.442Z,99821.56
2023-02-11T17:24:31.634Z,99822.23
2023-02-11T17:26:58.481Z,99823.60
2023-02-11T17:29:25.827Z,99825.31
2023-02-11T17:31:52.903Z,99825.13
2023-02-11T17:34:20.847Z,99825.98
2023-02-11T17:36:47.838Z,99820.66
2023-02-11T17:39:14.762Z,99814.13
2023-02-11T17:41:41.718Z,99813.98
2023-02-11T17:44:10.207Z,99811.27
2023-02-11T17:46:37.122Z,99811.64
2023-02-11T17:49:03.940Z,99811.14
2023-02-11T17:51:32.179Z,99810.45
2023-02-11T17:54:00.927Z,99812.50
2023-02-11T17:56:29.393Z,99816.79
2023-02-11T17:58:56.316Z,99821.59
2023-02-11T18:01:26.376Z,99819.02
2023-02-11T18:03:53.212Z,99814.55
2023-02-11T18:06:21.161Z,99814.02
2023-02-11T18:08:48.118Z,99809.27
2023-02-11T18:11:15.898Z,99806.23
2023-02-11T18:13:43.340Z,99804.53
2023-02-11T18:16:15.009Z,99805.02
2023-02-11T18:18:42.610Z,99799.52
2023-02-11T18:21:13.489Z,99805.02
2023-02-11T18:23:40.924Z,99804.16
2023-02-11T18:26:08.406Z,99806.55
2023-02-11T18:28:35.374Z,99806.20
2023-02-11T18:31:02.749Z,99801.05
2023-02-11T18:33:30.053Z,99795.88
2023-02-11T18:35:57.222Z,99784.55
2023-02-11T18:38:24.446Z,99775.83
2023-02-11T18:40:51.888Z,99764.02
2023-02-11T18:43:19.490Z,99755.97
2023-02-11T18:45:47.318Z,99755.30
2023-02-11T18:48:14.831Z,99751.16
2023-02-11T18:50:44.097Z,99746.86
2023-02-11T18:53:11.842Z,99753.20
2023-02-11T18:55:39.487Z,99755.05
2023-02-11T18:58:06.725Z,99755.20
2023-02-11T19:00:34.384Z,99751.60
2023-02-11T19:03:01.461Z,99752.63
2023-02-11T19:05:32.743Z,99749.49
2023-02-11T19:08:00.157Z,99734.92
2023-02-11T19:10:27.771Z,99722.92
2023-02-11T19:13:00.812Z,99721.23
2023-02-11T19:15:28.040Z,99730.16
2023-02-11T19:17:55.024Z,99727.77
2023-02-11T19:20:21.926Z,99727.94
2023-02-11T19:22:48.803Z,99716.62
2023-02-11T19:25:15.654Z,99718.67
2023-02-11T19:27:42.638Z,99724.52
2023-02-11T19:30:09.935Z,99725.54
2023-02-11T19:32:36.973Z,99730.35
2023-02-11T19:35:03.967Z,99730.73
2023-02-11T19:37:30.886Z,99731.90
2023-02-11T19:39:57.836Z,99731.91
2023-02-11T19:42:27.490Z,99730.23
2023-02-11T19:44:54.723Z,99731.14
2023-02-11T19:47:27.262Z,99730.98
2023-02-11T19:49:54.613Z,99729.27
2023-02-11T19:52:21.515Z,99728.95
2023-02-11T19:54:48.483Z,99721.76
2023-02-11T19:57:15.337Z,99716.27
2023-02-11T19:59:42.187Z,99723.14
2023-02-11T20:02:12.412Z,99722.80
2023-02-11T20:04:39.479Z,99718.70
2023-02-11T20:07:06.437Z,99705.98
2023-02-11T20:09:33.298Z,99704.09
2023-02-11T20:12:00.216Z,99705.11
2023-02-11T20:14:28.162Z,99715.56
2023-02-11T20:16:55.160Z,99715.92
2023-02-11T20:19:22.121Z,99721.24
2023-02-11T20:21:51.535Z,99726.22
2023-02-11T20:24:19.044Z,99728.26
2023-02-11T20:26:47.655Z,99718.65
2023-02-11T20:29:18.148Z,99707.36
2023-02-11T20:31:45.279Z,99705.88
2023-02-11T20:34:12.570Z,99704.88
2023-02-11T20:36:39.940Z,99699.73
2023-02-11T20:39:07.285Z,99707.79
2023-02-11T20:41:35.302Z,99704.52
2023-02-11T20:44:04.393Z,99705.02
2023-02-11T20:46:32.517Z,99708.11
2023-02-11T20:49:00.190Z,99702.09
2023-02-11T20:51:29.974Z,99708.77
2023-02-11T20:53:57.101Z,99708.92
2023-02-11T20:56:28.166Z,99710.65
2023-02-11T20:58:56.413Z,99710.99
2023-02-11T21:01:28.143Z,99705.15
2023-02-11T21:03:56.629Z,99698.79
2023-02-11T21:06:25.151Z,99694.33
2023-02-11T21:08:52.918Z,99694.50
2023-02-11T21:11:20.139Z,99691.58
2023-02-11T21:13:48.194Z,99693.64
2023-02-11T21:16:16.881Z,99689.88
2023-02-11T21:18:46.165Z,99685.92
2023-02-11T21:21:13.068Z,99684.56
2023-02-11T21:23:40.073Z,99683.38
2023-02-11T21:26:07.496Z,99683.55
2023-02-11T21:28:35.253Z,99679.78
2023-02-11T21:31:02.975Z,99677.87
2023-02-11T21:33:33.007Z,99681.48
2023-02-11T21:36:01.166Z,99681.81
2023-02-11T21:38:28.220Z,99680.42
2023-02-11T21:40:55.042Z,99680.09
2023-02-11T21:43:21.978Z,99679.39
2023-02-11T21:45:49.728Z,99682.98
2023-02-11T21:48:17.308Z,99683.67
2023-02-11T21:50:46.342Z,99680.05
2023-02-11T21:53:13.408Z,99677.99
2023-02-11T21:55:40.711Z,99688.80
2023-02-11T21:58:07.674Z,99688.48
2023-02-11T22:00:34.784Z,99681.80
2023-02-11T22:03:01.788Z,99685.56
2023-02-11T22:05:28.752Z,99680.94
2023-02-11T22:07:55.816Z,99678.75
2023-02-11T22:10:22.884Z,99677.91
2023-02-11T22:12:49.764Z,99674.48
2023-02-11T22:15:16.694Z,99670.53
2023-02-11T22:17:43.506Z,99668.33
2023-02-11T22:20:10.697Z,99668.67
2023-02-11T22:22:37.727Z,99673.30
2023-02-11T22:25:04.801Z,99675.35
2023-02-11T22:27:31.786Z,99676.20
2023-02-11T22:29:58.705Z,99676.37
2023-02-11T22:32:25.720Z,99675.13
2023-02-11T22:34:53.498Z,99671.02
2023-02-11T22:37:20.481Z,99669.96
2023-02-11T22:39:47.345Z,99671.16
2023-02-11T22:42:14.326Z,99672.20
2023-02-11T22:44:41.223Z,99674.42
2023-02-11T22:47:08.109Z,99672.18
2023-02-11T22:49:35.162Z,99665.83
2023-02-11T22:52:03.036Z,99666.70
2023-02-11T22:54:30.868Z,99666.89
2023-02-11T22:56:57.784Z,99668.95
2023-02-11T22:59:24.626Z,99670.70
2023-02-11T23:01:51.744Z,99668.48
2023-02-11T23:04:18.736Z,99663.70
2023-02-11T23:06:47.144Z,99659.60
2023-02-11T23:09:14.391Z,99658.78
2023-02-11T23:11:41.500Z,99654.85
2023-02-11T23:14:09.654Z,99652.47
2023-02-11T23:16:36.619Z,99649.77
2023-02-11T23:19:05.250Z,99651.86
2023-02-11T23:21:33.028Z,99647.77
2023-02-11T23:24:04.982Z,99646.40
2023-02-11T23:26:31.974Z,99646.23
2023-02-11T23:28:59.413Z,99648.79
2023-02-11T23:31:28.288Z,99646.39
2023-02-11T23:33:55.249Z,99645.38
2023-02-11T23:36:23.069Z,99637.69
2023-02-11T23:38:50.468Z,99636.88
2023-02-11T23:41:17.735Z,99634.86
2023-02-11T23:43:48.051Z,99638.98
2023-02-11T23:46:15.021Z,99638.14
2023-02-11T23:48:41.886Z,99641.39
2023-02-11T23:51:09.368Z,99646.34
2023-02-11T23:53:37.017Z,99648.89
2023-02-11T23:56:08.467Z,99653.36
2023-02-11T23:58:35.903Z,99654.41
